Terminal Aerodrome Forecast
Issued by NWS

Home | Current Version | Previous Version | Text Only | Print | Product List | Glossary On
Versions: 1 2 3 4 5 6 7 8 9 10 11 12 13 14 15 16 17 18 19
286
FTUS41 KCAR 261349 AAB
TAFBHB
TAF AMD
KBHB 261349Z 2614/2712 08009KT 2SM -RA BR OVC002
     FM261500 11007KT 5SM -RA BR OVC003
     FM261800 11007KT 2SM -RA BR OVC003 WS020/17040KT
     FM262300 16008KT 1 1/2SM -DZ BR OVC002=

USA.gov is the U.S. government's official web portal to all federal, state and local government web resources and services.